Disclaimer

Please do not use the information listed here in-flight or in-navigation, as they are not provided to us by the airports but are provided by volunteers, so they might be outdated.

Search


Regions


Airport information page

Radio informations:
BAIA MARE TWR - 118.1 MHz
BAIA MARE PRECIS - 118.85 MHz

Airport informations:
Latitude: 47° 39' 30.20" N
Longitude: 023° 28' 12.08" E
Elevation: 605 feet - 184 meters
Operating hours: N/A
Operating agency: Civil government, landing fees and diplomatic clearance may be required
Timezone: UTC+2(+3DT)
Fuel: N/A

Runway information:
10/28 - 5905 x 98 feet< - >1800 x 30 meters

Recent METARs:
LRBM 202200Z AUTO 09003KT 9999 FEW023/// SCT033/// 06/05 Q1016
LRBM 202230Z AUTO 12002KT 9999 BKN032/// BKN230/// 06/05 Q1016
LRBM 202300Z AUTO 06002KT 020V080 9999 FEW026/// BKN033/// 06/04 Q1016

Airport on the map: